createdAt,value
2023-03-30T00:05:05.047Z,2.90
2023-03-30T00:10:34.470Z,2.40
2023-03-30T00:15:56.478Z,3.30
2023-03-30T00:21:23.033Z,2.92
2023-03-30T00:26:51.590Z,4.07
2023-03-30T00:32:20.261Z,2.95
2023-03-30T00:37:49.510Z,2.97
2023-03-30T00:43:19.713Z,2.50
2023-03-30T00:48:42.984Z,2.95
2023-03-30T00:54:12.913Z,2.90
2023-03-30T00:59:42.848Z,3.10
2023-03-30T01:05:09.129Z,2.78
2023-03-30T01:10:37.683Z,2.67
2023-03-30T01:16:07.925Z,3.10
2023-03-30T01:21:55.684Z,2.45
2023-03-30T01:27:39.270Z,2.45
2023-03-30T01:33:24.896Z,3.70
2023-03-30T01:39:20.435Z,4.38
2023-03-30T01:44:45.885Z,4.07
2023-03-30T01:50:10.309Z,4.50
2023-03-30T01:55:34.909Z,3.13
2023-03-30T02:01:00.905Z,2.42
2023-03-30T02:06:26.731Z,3.22
2023-03-30T02:11:51.512Z,4.20
2023-03-30T02:17:17.458Z,4.18
2023-03-30T02:22:40.952Z,3.47
2023-03-30T02:28:03.930Z,6.40
2023-03-30T02:33:39.383Z,4.70
2023-03-30T02:39:14.620Z,3.33
2023-03-30T02:44:45.864Z,2.67
2023-03-30T02:50:19.065Z,3.97
2023-03-30T02:55:46.725Z,2.90
2023-03-30T03:01:33.925Z,3.92
2023-03-30T03:07:03.943Z,2.70
2023-03-30T03:12:26.646Z,3.60
2023-03-30T03:17:50.319Z,2.83
2023-03-30T03:23:15.163Z,3.25
2023-03-30T03:28:43.340Z,6.80
2023-03-30T03:34:06.245Z,3.30
2023-03-30T03:39:47.951Z,3.58
2023-03-30T03:45:12.163Z,2.92
2023-03-30T03:50:55.097Z,4.10
2023-03-30T03:56:18.923Z,3.60
2023-03-30T04:01:47.647Z,5.28
2023-03-30T04:07:11.747Z,3.70
2023-03-30T04:12:41.493Z,2.83
2023-03-30T04:18:34.454Z,3.17
2023-03-30T04:24:22.565Z,2.78
2023-03-30T04:30:11.003Z,2.47
2023-03-30T04:36:19.499Z,3.93
2023-03-30T04:42:14.099Z,4.05
2023-03-30T04:48:01.985Z,4.22
2023-03-30T04:53:53.372Z,3.42
2023-03-30T04:59:41.535Z,5.82
2023-03-30T05:05:30.014Z,3.35
2023-03-30T05:11:30.536Z,3.72
2023-03-30T05:17:00.251Z,4.45
2023-03-30T05:22:53.761Z,4.45
2023-03-30T05:28:38.717Z,5.38
2023-03-30T05:34:25.570Z,4.47
2023-03-30T05:40:09.609Z,5.13
2023-03-30T05:45:46.275Z,3.70
2023-03-30T05:51:34.397Z,3.80
2023-03-30T05:57:24.795Z,4.88
2023-03-30T06:03:19.591Z,4.68
2023-03-30T06:08:48.285Z,4.45
2023-03-30T06:14:21.726Z,6.43
2023-03-30T06:20:12.528Z,9.67
2023-03-30T06:25:40.177Z,4.65
2023-03-30T06:31:10.078Z,4.20
2023-03-30T06:36:44.504Z,3.63
2023-03-30T06:42:17.978Z,9.07
2023-03-30T06:48:06.268Z,4.78
2023-03-30T06:53:38.921Z,6.72
2023-03-30T06:59:03.877Z,4.10
2023-03-30T07:04:29.666Z,2.67
2023-03-30T07:10:19.232Z,6.05
2023-03-30T07:15:44.101Z,6.45
2023-03-30T07:21:13.771Z,5.75
2023-03-30T07:26:43.627Z,4.25
2023-03-30T07:32:08.854Z,8.00
2023-03-30T07:37:40.164Z,7.63
2023-03-30T07:43:09.423Z,6.93
2023-03-30T07:48:38.453Z,3.75
2023-03-30T07:54:02.941Z,12.60
2023-03-30T07:59:43.551Z,11.95
2023-03-30T08:05:22.741Z,5.10
2023-03-30T08:11:04.199Z,5.95
2023-03-30T08:16:34.701Z,7.32
2023-03-30T08:22:02.265Z,8.07
2023-03-30T08:27:33.347Z,8.05
2023-03-30T08:32:59.239Z,9.43
2023-03-30T08:38:22.319Z,7.50
2023-03-30T08:43:54.284Z,6.47
2023-03-30T08:49:19.467Z,4.22
2023-03-30T08:54:43.164Z,3.75
2023-03-30T09:00:23.067Z,10.45
2023-03-30T09:05:54.295Z,3.83
2023-03-30T09:11:23.259Z,6.45
2023-03-30T09:16:51.797Z,5.72
2023-03-30T09:22:16.818Z,5.55
2023-03-30T09:27:43.834Z,3.35
2023-03-30T09:33:15.421Z,4.63
2023-03-30T09:38:42.061Z,3.88
2023-03-30T09:44:06.239Z,5.13
2023-03-30T09:49:33.617Z,5.85
2023-03-30T09:55:04.765Z,3.67
2023-03-30T10:00:32.512Z,3.50
2023-03-30T10:06:03.987Z,7.25
2023-03-30T10:11:36.911Z,5.05
2023-03-30T10:17:00.723Z,4.30
2023-03-30T10:22:25.024Z,4.50
2023-03-30T10:27:56.032Z,4.72
2023-03-30T10:33:24.835Z,3.42
2023-03-30T10:38:54.191Z,5.88
2023-03-30T10:44:21.563Z,4.07
2023-03-30T10:49:53.372Z,4.55
2023-03-30T11:00:48.538Z,3.58
2023-03-30T11:06:20.923Z,7.07
2023-03-30T11:11:51.151Z,6.75
2023-03-30T11:17:21.118Z,4.20
2023-03-30T11:22:52.769Z,4.35
2023-03-30T11:28:19.928Z,4.05
2023-03-30T11:33:52.561Z,4.40
2023-03-30T11:39:31.610Z,7.03
2023-03-30T11:44:59.300Z,7.32
2023-03-30T11:50:28.058Z,4.38
2023-03-30T11:56:00.434Z,4.40
2023-03-30T12:01:27.984Z,8.13
2023-03-30T12:06:59.379Z,4.88
2023-03-30T12:12:26.058Z,6.82
2023-03-30T12:17:53.714Z,11.10
2023-03-30T12:23:22.609Z,5.75
2023-03-30T12:34:14.110Z,4.20
2023-03-30T12:39:44.869Z,3.92
2023-03-30T12:45:21.370Z,4.25
2023-03-30T12:50:52.116Z,4.60
2023-03-30T12:56:29.147Z,3.72
2023-03-30T13:01:56.466Z,5.03
2023-03-30T13:07:24.027Z,5.30
2023-03-30T13:12:57.173Z,3.67
2023-03-30T13:18:26.590Z,6.38
2023-03-30T13:24:04.233Z,4.90
2023-03-30T13:29:30.956Z,3.70
2023-03-30T13:35:06.709Z,5.82
2023-03-30T13:40:46.213Z,4.60
2023-03-30T13:46:25.364Z,7.03
2023-03-30T13:51:49.298Z,5.75
2023-03-30T13:57:19.361Z,7.80
2023-03-30T14:02:45.056Z,6.45
2023-03-30T14:08:10.361Z,3.03
2023-03-30T14:13:38.237Z,3.30
2023-03-30T14:19:12.593Z,3.63
2023-03-30T14:24:40.569Z,5.20
2023-03-30T14:30:09.178Z,5.07
2023-03-30T14:35:42.552Z,6.18
2023-03-30T14:41:14.903Z,5.50
2023-03-30T14:46:46.943Z,5.88
2023-03-30T14:52:16.829Z,4.50
2023-03-30T14:57:46.541Z,4.30
2023-03-30T15:03:19.835Z,3.47
2023-03-30T15:08:48.313Z,6.05
2023-03-30T15:14:16.262Z,4.93
2023-03-30T15:19:41.588Z,6.05
2023-03-30T15:25:10.512Z,4.78
2023-03-30T15:30:39.457Z,4.25
2023-03-30T15:36:11.967Z,5.25
2023-03-30T15:41:47.356Z,4.38
2023-03-30T15:47:17.676Z,3.27
2023-03-30T15:52:45.886Z,4.70
2023-03-30T15:58:14.811Z,5.40
2023-03-30T16:03:42.384Z,6.28
2023-03-30T16:09:08.730Z,4.95
2023-03-30T16:14:38.729Z,3.80
2023-03-30T16:20:14.124Z,4.65
2023-03-30T16:25:45.198Z,6.80
2023-03-30T16:31:18.344Z,8.25
2023-03-30T16:36:42.250Z,6.07
2023-03-30T16:42:05.599Z,4.72
2023-03-30T16:47:32.201Z,2.80
2023-03-30T16:53:01.426Z,4.60
2023-03-30T16:58:29.888Z,6.13
2023-03-30T17:03:56.428Z,6.03
2023-03-30T17:09:21.283Z,3.92
2023-03-30T17:14:50.186Z,4.18
2023-03-30T17:20:22.109Z,3.25
2023-03-30T17:25:51.088Z,4.18
2023-03-30T17:31:16.385Z,4.88
2023-03-30T17:36:46.493Z,4.30
2023-03-30T17:42:11.654Z,5.97
2023-03-30T17:47:38.590Z,6.18
2023-03-30T17:53:03.148Z,8.70
2023-03-30T17:58:34.042Z,5.50
2023-03-30T18:03:59.400Z,6.03
2023-03-30T18:09:29.458Z,6.32
2023-03-30T18:14:52.184Z,5.25
2023-03-30T18:20:17.968Z,7.70
2023-03-30T18:25:43.294Z,8.60
2023-03-30T18:31:12.419Z,7.75
2023-03-30T18:36:38.016Z,6.10
2023-03-30T18:42:02.384Z,7.63
2023-03-30T18:47:31.440Z,6.97
2023-03-30T18:52:54.940Z,7.82
2023-03-30T18:58:26.549Z,7.67
2023-03-30T19:03:54.906Z,6.53
2023-03-30T19:09:36.373Z,8.23
2023-03-30T19:15:28.496Z,8.63
2023-03-30T19:20:56.465Z,10.70
2023-03-30T19:26:23.867Z,18.30
2023-03-30T19:31:54.962Z,21.53
2023-03-30T19:37:25.670Z,19.65
2023-03-30T19:42:53.872Z,15.38
2023-03-30T19:48:23.210Z,14.05
2023-03-30T19:53:53.567Z,13.68
2023-03-30T19:59:22.591Z,11.38
2023-03-30T20:04:50.996Z,9.25
2023-03-30T20:10:22.044Z,6.90
2023-03-30T20:15:46.933Z,6.20
2023-03-30T20:21:11.468Z,5.60
2023-03-30T20:26:41.683Z,4.80
2023-03-30T20:32:05.118Z,4.70
2023-03-30T20:37:28.386Z,3.88
2023-03-30T20:43:02.088Z,3.80
2023-03-30T20:48:33.456Z,4.50
2023-03-30T20:54:01.937Z,3.65
2023-03-30T20:59:32.300Z,4.40
2023-03-30T21:04:56.755Z,4.40
2023-03-30T21:10:25.659Z,3.53
2023-03-30T21:15:59.638Z,3.47
2023-03-30T21:21:24.722Z,2.88
2023-03-30T21:26:52.718Z,2.55
2023-03-30T21:32:22.149Z,2.30
2023-03-30T21:37:50.882Z,2.42
2023-03-30T21:43:14.075Z,2.55
2023-03-30T21:48:39.210Z,2.15
2023-03-30T21:54:07.828Z,2.53
2023-03-30T21:59:36.626Z,3.20
2023-03-30T22:05:06.543Z,2.70
2023-03-30T22:10:35.685Z,2.17
2023-03-30T22:15:59.501Z,2.10
2023-03-30T22:21:25.521Z,1.85
2023-03-30T22:26:50.032Z,2.15
2023-03-30T22:32:14.001Z,2.53
2023-03-30T22:37:44.138Z,2.45
2023-03-30T22:43:06.864Z,3.05
2023-03-30T22:48:36.663Z,3.33
2023-03-30T22:54:06.565Z,3.58
2023-03-30T22:59:31.535Z,4.28
2023-03-30T23:05:01.448Z,3.05
2023-03-30T23:10:26.394Z,2.53
2023-03-30T23:15:50.797Z,2.55
2023-03-30T23:21:15.152Z,2.72
2023-03-30T23:26:43.877Z,2.40
2023-03-30T23:32:13.567Z,1.95
2023-03-30T23:37:38.266Z,3.05
2023-03-30T23:43:06.744Z,2.38
2023-03-30T23:48:32.242Z,2.00
2023-03-30T23:54:06.167Z,2.27
2023-03-30T23:59:30.528Z,2.15
